Time;durP1;ratioP1;P1;durP2;ratioP2;P2;SDS_P1;SDS_P2;PMS_P1;PMS_P2;Temp;Humidity;BMP_temperature;BMP_pressure;BME280_temperature;BME280_humidity;BME280_pressure;Samples;Min_cycle;Max_cycle;Signal;HPM_P1;HPM_P2
2021/12/19 00:02:04;;;;;;;3.53;0.85;;;;;;;5.14;55.81;103300.38;4957791;28;20042;-75
2021/12/19 00:04:40;;;;;;;6.93;1.05;;;;;;;4.76;56.89;103302.94;4946499;28;20062;-75
2021/12/19 00:09:50;;;;;;;5.72;0.55;;;;;;;4.95;55.59;103285.28;4954702;28;20605;-74
2021/12/19 00:12:15;;;;;;;9.05;0.90;;;;;;;4.94;55.75;103283.50;4947062;28;20124;-75
2021/12/19 00:14:41;;;;;;;5.68;0.55;;;;;;;4.74;56.12;103281.31;4938369;28;20070;-75
2021/12/19 00:17:06;;;;;;;3.42;1.13;;;;;;;5.12;55.51;103283.91;4945031;28;20092;-75
2021/12/19 00:19:32;;;;;;;6.00;0.88;;;;;;;5.17;55.59;103278.84;4956012;28;20525;-74
2021/12/19 00:21:57;;;;;;;6.15;0.68;;;;;;;5.35;54.93;103273.16;4934306;28;20043;-74
2021/12/19 00:24:24;;;;;;;15.45;1.13;;;;;;;5.57;54.13;103277.03;4945699;28;20507;-73
2021/12/19 00:26:50;;;;;;;6.35;0.73;;;;;;;5.42;54.46;103272.44;4941556;28;20035;-72
2021/12/19 00:29:19;;;;;;;5.05;0.80;;;;;;;5.08;55.69;103263.97;4954518;28;20038;-74
2021/12/19 00:31:46;;;;;;;10.90;0.77;;;;;;;5.29;55.54;103263.53;4939675;28;20113;-74
2021/12/19 00:34:13;;;;;;;5.82;0.80;;;;;;;5.48;54.73;103258.69;4954794;28;20031;-75
2021/12/19 00:36:40;;;;;;;14.30;1.83;;;;;;;5.40;54.97;103255.97;4945944;28;20033;-74
2021/12/19 00:39:06;;;;;;;7.10;1.25;;;;;;;5.59;54.83;103252.00;4939287;28;20069;-74
2021/12/19 00:41:31;;;;;;;7.18;0.82;;;;;;;5.72;54.59;103240.13;4937128;28;20476;-74
2021/12/19 00:44:08;;;;;;;6.18;1.13;;;;;;;5.96;54.04;103232.78;4955835;28;20449;-74
2021/12/19 00:46:51;;;;;;;2.63;0.77;;;;;;;5.41;55.57;103234.34;4925334;28;20078;-75
2021/12/19 00:49:18;;;;;;;9.45;1.25;;;;;;;5.84;54.49;103224.78;4938027;28;20066;-74
2021/12/19 00:51:44;;;;;;;5.10;1.60;;;;;;;5.61;55.60;103225.25;4937715;28;20719;-74
2021/12/19 00:54:11;;;;;;;5.60;0.80;;;;;;;5.62;55.51;103221.81;4952418;28;20045;-74
2021/12/19 00:56:44;;;;;;;8.73;1.45;;;;;;;5.83;55.33;103223.03;4954996;28;20057;-75
2021/12/19 00:59:10;;;;;;;4.70;1.75;;;;;;;6.02;54.41;103206.94;4936719;28;20045;-74
2021/12/19 01:01:36;;;;;;;11.45;1.35;;;;;;;5.59;56.27;103200.09;4953868;28;20520;-72
2021/12/19 01:04:05;;;;;;;6.97;1.58;;;;;;;5.81;55.75;103201.38;4937199;28;20026;-72
2021/12/19 01:06:31;;;;;;;7.35;2.03;;;;;;;5.48;56.03;103191.25;4936619;28;20031;-73
2021/12/19 01:08:56;;;;;;;2.33;0.70;;;;;;;5.17;57.53;103207.13;4954728;28;20440;-74
2021/12/19 01:11:22;;;;;;;8.98;1.55;;;;;;;5.37;56.91;103206.63;4953860;28;20155;-72
2021/12/19 01:13:50;;;;;;;15.95;1.58;;;;;;;5.36;56.54;103203.16;4936549;28;20512;-72
2021/12/19 01:16:15;;;;;;;13.10;2.58;;;;;;;5.12;57.29;103197.47;4936439;28;20069;-73
2021/12/19 01:18:43;;;;;;;8.15;1.23;;;;;;;5.29;56.43;103195.25;4936801;28;20065;-73
2021/12/19 01:21:09;;;;;;;13.32;1.35;;;;;;;5.52;55.72;103199.13;4944155;28;20526;-73
2021/12/19 01:23:34;;;;;;;9.07;1.13;;;;;;;5.69;55.35;103201.16;4937635;28;20679;-73
2021/12/19 01:26:00;;;;;;;8.18;1.77;;;;;;;4.98;57.39;103194.63;4935817;28;20579;-73
2021/12/19 01:28:25;;;;;;;4.78;1.45;;;;;;;5.03;57.45;103186.13;4953574;28;20130;-73
2021/12/19 01:30:51;;;;;;;12.13;2.08;;;;;;;5.40;56.34;103173.84;4919767;28;20116;-74
2021/12/19 01:33:16;;;;;;;12.90;2.63;;;;;;;5.02;57.54;103186.94;4953054;28;20043;-73
2021/12/19 01:35:42;;;;;;;13.35;2.10;;;;;;;5.51;56.03;103179.22;4937106;28;20070;-73
2021/12/19 01:38:07;;;;;;;11.05;1.65;;;;;;;5.65;55.75;103180.34;4937235;28;20439;-73
2021/12/19 01:40:33;;;;;;;11.70;2.50;;;;;;;5.28;56.81;103189.19;4943364;28;20043;-72
2021/12/19 01:42:58;;;;;;;7.38;3.20;;;;;;;5.74;55.72;103190.00;4953512;28;20042;-71
2021/12/19 01:45:29;;;;;;;21.50;3.65;;;;;;;5.78;56.05;103180.56;4951323;28;20532;-71
2021/12/19 01:47:55;;;;;;;7.72;2.85;;;;;;;5.66;55.79;103173.44;4933095;28;20248;-71
2021/12/19 01:50:21;;;;;;;17.20;3.33;;;;;;;5.29;57.04;103169.31;4943144;28;20046;-71
2021/12/19 01:52:48;;;;;;;8.85;2.97;;;;;;;5.30;56.60;103181.41;4953075;28;20077;-71
2021/12/19 01:55:16;;;;;;;7.68;2.78;;;;;;;5.55;56.02;103180.16;4951294;28;20129;-72
2021/12/19 01:57:42;;;;;;;8.98;3.05;;;;;;;5.38;56.28;103185.03;4943883;28;20125;-72
2021/12/19 02:00:18;;;;;;;13.73;3.05;;;;;;;5.55;55.31;103175.84;4953121;28;20134;-72
2021/12/19 02:02:43;;;;;;;10.73;4.13;;;;;;;5.13;56.48;103176.78;4952167;28;20054;-72
2021/12/19 02:05:09;;;;;;;11.35;3.25;;;;;;;5.14;55.92;103170.75;4952131;28;20055;-72
2021/12/19 02:07:34;;;;;;;8.73;2.95;;;;;;;5.05;56.19;103170.56;4920434;28;20043;-72
2021/12/19 02:10:00;;;;;;;11.80;3.60;;;;;;;5.04;55.96;103168.84;4950029;28;20051;-72
2021/12/19 02:12:25;;;;;;;6.50;3.42;;;;;;;5.19;55.56;103169.13;4954166;28;20460;-73
2021/12/19 02:14:51;;;;;;;6.38;2.60;;;;;;;5.05;56.18;103178.34;4951147;28;20513;-72
2021/12/19 02:17:16;;;;;;;11.80;3.72;;;;;;;5.25;56.00;103181.31;4951367;28;20045;-72
2021/12/19 02:19:42;;;;;;;12.90;3.65;;;;;;;5.17;55.90;103181.19;4952347;28;20120;-72
2021/12/19 02:22:07;;;;;;;16.88;3.83;;;;;;;4.86;56.98;103173.63;4955553;28;20031;-73
2021/12/19 02:24:34;;;;;;;7.10;3.25;;;;;;;5.24;55.86;103177.00;4950857;28;20394;-72
2021/12/19 02:27:00;;;;;;;14.52;4.35;;;;;;;5.34;55.63;103159.88;4940097;28;20051;-72
2021/12/19 02:29:25;;;;;;;13.25;3.75;;;;;;;5.41;55.35;103167.81;4950283;28;20127;-72
2021/12/19 02:31:51;;;;;;;14.18;4.88;;;;;;;5.41;55.64;103165.22;4955469;28;20328;-71
2021/12/19 02:34:21;;;;;;;8.75;3.13;;;;;;;5.33;56.09;103168.53;4934607;28;20119;-72
2021/12/19 02:39:35;;;;;;;13.63;3.13;;;;;;;5.24;56.78;103164.91;4951967;28;20509;-72
2021/12/19 02:50:12;;;;;;;17.13;3.38;;;;;;;4.96;58.04;103149.66;4955397;28;20053;-72
2021/12/19 02:52:38;;;;;;;13.52;2.70;;;;;;;5.39;57.08;103142.69;4956837;28;20042;-72
2021/12/19 02:55:05;;;;;;;14.95;2.22;;;;;;;4.98;58.06;103142.78;4956529;28;20051;-72
2021/12/19 02:57:31;;;;;;;9.73;2.65;;;;;;;5.14;57.25;103136.19;4953450;28;20525;-73
2021/12/19 02:59:57;;;;;;;9.77;2.22;;;;;;;5.43;56.79;103141.91;4954456;28;20081;-72
2021/12/19 03:02:24;;;;;;;12.10;2.40;;;;;;;5.20;57.01;103131.97;4943902;28;20029;-72
2021/12/19 03:04:59;;;;;;;11.50;1.48;;;;;;;4.97;57.72;103135.88;4951791;28;20050;-72
2021/12/19 03:07:27;;;;;;;15.50;2.42;;;;;;;5.19;57.24;103132.84;4957114;28;20039;-72
2021/12/19 03:17:57;;;;;;;6.45;2.53;;;;;;;5.21;57.00;103125.97;4956965;28;20043;-72
2021/12/19 03:20:23;;;;;;;13.27;3.42;;;;;;;5.18;57.14;103118.13;4953213;28;20058;-72
2021/12/19 03:22:49;;;;;;;11.05;1.17;;;;;;;4.97;57.99;103112.53;4954953;28;20167;-71
2021/12/19 03:25:18;;;;;;;9.13;1.35;;;;;;;5.34;56.75;103110.63;4945983;28;20062;-72
2021/12/19 03:27:43;;;;;;;7.00;2.50;;;;;;;5.16;57.45;103117.22;4955466;28;20102;-71
2021/12/19 03:30:10;;;;;;;18.08;2.15;;;;;;;5.38;56.59;103118.47;4956246;28;20047;-71
2021/12/19 03:32:35;;;;;;;16.83;3.13;;;;;;;5.22;56.92;103122.50;4956273;28;20043;-72
2021/12/19 03:35:01;;;;;;;11.35;2.22;;;;;;;5.15;57.55;103120.66;4952938;28;20039;-71
2021/12/19 03:37:27;;;;;;;12.00;2.05;;;;;;;5.19;57.05;103119.88;4954008;28;20070;-71
2021/12/19 03:40:09;;;;;;;13.60;2.78;;;;;;;4.88;57.29;103130.47;4938321;28;20046;-71
2021/12/19 03:42:43;;;;;;;9.13;2.10;;;;;;;5.01;56.89;103122.09;4943076;28;20477;-70
2021/12/19 03:45:14;;;;;;;8.43;2.60;;;;;;;4.84;57.04;103117.44;4950650;28;20043;-70
2021/12/19 03:47:40;;;;;;;9.32;2.05;;;;;;;5.01;56.38;103106.53;4955061;28;20251;-71
2021/12/19 03:50:08;;;;;;;7.95;1.80;;;;;;;5.40;55.40;103102.94;4954550;28;20046;-71
2021/12/19 03:52:34;;;;;;;14.18;4.72;;;;;;;4.99;56.44;103100.50;4936428;28;20045;-71
2021/12/19 03:55:00;;;;;;;9.48;2.40;;;;;;;5.15;56.38;103112.88;4939997;28;20063;-71
2021/12/19 03:57:25;;;;;;;17.58;3.55;;;;;;;5.34;55.98;103110.63;4952465;28;20113;-71
2021/12/19 03:59:51;;;;;;;25.33;4.13;;;;;;;5.20;56.55;103105.19;4954983;28;20114;-71
2021/12/19 04:02:24;;;;;;;14.73;3.55;;;;;;;5.21;56.92;103097.44;4954137;28;20046;-72
2021/12/19 04:04:50;;;;;;;15.27;4.10;;;;;;;5.10;57.06;103111.03;4953543;28;20502;-74
2021/12/19 04:07:16;;;;;;;14.45;4.50;;;;;;;5.37;56.21;103093.41;4955533;28;20027;-74
2021/12/19 04:09:42;;;;;;;11.32;3.90;;;;;;;5.54;55.85;103098.00;4921363;28;20766;-73
2021/12/19 04:12:08;;;;;;;16.60;3.53;;;;;;;5.63;55.75;103100.72;4955489;28;20027;-73
2021/12/19 04:14:34;;;;;;;15.43;3.38;;;;;;;5.29;57.16;103086.34;4937866;28;20597;-73
2021/12/19 04:17:00;;;;;;;17.52;3.35;;;;;;;5.42;56.84;103083.09;4953962;28;20031;-73
2021/12/19 04:19:28;;;;;;;15.27;3.05;;;;;;;5.01;58.09;103081.53;4953649;28;20043;-72
2021/12/19 04:21:54;;;;;;;14.95;2.70;;;;;;;5.14;57.88;103058.41;4935964;28;20039;-73
2021/12/19 04:24:20;;;;;;;17.25;3.00;;;;;;;5.40;56.89;103069.22;4943763;28;20039;-73
2021/12/19 04:26:45;;;;;;;23.35;3.72;;;;;;;5.49;56.77;103059.00;4937272;28;20433;-72
2021/12/19 04:29:11;;;;;;;13.68;3.70;;;;;;;5.12;57.84;103053.19;4953636;28;20041;-74
2021/12/19 04:31:37;;;;;;;9.45;2.10;;;;;;;4.97;58.00;103052.94;4956168;28;20121;-73
2021/12/19 04:34:03;;;;;;;12.18;1.88;;;;;;;4.92;58.24;103050.25;4934144;28;20031;-74
2021/12/19 04:36:33;;;;;;;9.98;2.35;;;;;;;5.03;57.75;103056.50;4922931;28;20146;-75
2021/12/19 04:52:54;;;;;;;8.40;1.75;;;;;;;5.10;58.73;103041.94;4943372;28;20042;-72
2021/12/19 04:55:37;;;;;;;5.85;0.82;;;;;;;4.73;59.83;103040.34;4954734;28;20047;-72
2021/12/19 04:59:07;;;;;;;4.80;0.40;;;;;;;4.99;58.58;103053.84;4963518;28;20394;-71
2021/12/19 05:04:04;;;;;;;2.00;0.15;;;;;;;4.79;58.92;103038.75;4952415;28;20581;-71
2021/12/19 05:14:43;;;;;;;3.75;0.20;;;;;;;4.59;59.96;103025.41;4951232;28;20061;-71
2021/12/19 05:17:15;;;;;;;6.90;0.35;;;;;;;4.96;59.07;103022.66;4950563;28;20500;-71
2021/12/19 05:19:49;;;;;;;2.03;0.10;;;;;;;5.21;58.22;103032.63;4950622;28;20050;-72
2021/12/19 05:22:17;;;;;;;4.95;0.25;;;;;;;4.82;59.37;103020.66;4950620;28;20129;-72
2021/12/19 05:25:00;;;;;;;2.08;0.13;;;;;;;4.70;59.96;103029.91;4952002;28;20051;-72
2021/12/19 05:27:26;;;;;;;10.90;0.38;;;;;;;4.83;59.60;103025.00;4937729;28;20030;-73
2021/12/19 05:29:52;;;;;;;9.35;0.50;;;;;;;4.78;59.79;103021.44;4935004;28;20061;-71
2021/12/19 05:32:17;;;;;;;5.72;0.40;;;;;;;5.15;58.61;103022.16;4936126;28;20035;-72
2021/12/19 05:34:43;;;;;;;12.25;0.90;;;;;;;4.99;59.39;103009.78;4951449;28;20043;-72
2021/12/19 05:45:21;;;;;;;7.68;0.50;;;;;;;5.12;58.88;103014.28;4950763;28;20375;-72
2021/12/19 05:47:48;;;;;;;13.13;1.35;;;;;;;4.87;59.87;103012.97;4953221;28;20093;-72
2021/12/19 05:50:17;;;;;;;12.05;0.95;;;;;;;4.87;60.14;103004.31;4951223;28;20490;-72
2021/12/19 05:52:43;;;;;;;12.45;0.95;;;;;;;5.01;59.94;103008.06;4933912;28;20077;-72
2021/12/19 05:55:09;;;;;;;4.40;1.02;;;;;;;5.18;59.17;103001.44;4950106;28;20078;-71
2021/12/19 05:57:35;;;;;;;11.57;1.65;;;;;;;4.71;60.26;102998.00;4938138;28;20506;-74
2021/12/19 06:00:01;;;;;;;10.05;1.95;;;;;;;4.94;59.65;102996.72;4936891;28;20058;-71
2021/12/19 06:02:27;;;;;;;4.63;1.02;;;;;;;5.23;58.99;102999.81;4935510;28;20039;-72
2021/12/19 06:04:52;;;;;;;7.00;1.55;;;;;;;4.76;59.85;102992.03;4936883;28;20051;-74
2021/12/19 06:07:27;;;;;;;12.95;1.10;;;;;;;5.10;58.74;102999.56;4938079;28;20031;-73
2021/12/19 06:09:53;;;;;;;10.90;1.50;;;;;;;4.83;59.35;102993.03;4936072;28;20517;-73
2021/12/19 06:12:18;;;;;;;11.52;1.48;;;;;;;5.13;58.34;102997.03;4950651;28;20039;-72
2021/12/19 06:14:44;;;;;;;6.80;0.88;;;;;;;4.82;59.42;102997.34;4926031;28;20074;-72
2021/12/19 06:17:09;;;;;;;7.70;0.50;;;;;;;4.97;59.13;103001.09;4951864;28;20118;-72
2021/12/19 06:19:36;;;;;;;11.52;1.50;;;;;;;5.34;58.04;103001.69;4935918;28;20473;-73
2021/12/19 06:22:04;;;;;;;7.75;0.57;;;;;;;5.05;59.17;102996.91;4956129;28;20466;-73
2021/12/19 06:24:30;;;;;;;10.18;1.05;;;;;;;5.25;58.67;102989.47;4946721;28;20077;-73
2021/12/19 06:26:55;;;;;;;13.15;1.02;;;;;;;4.98;59.47;102982.09;4947610;28;20067;-73
2021/12/19 06:29:21;;;;;;;14.40;1.50;;;;;;;4.96;60.16;102988.97;4938181;28;20051;-72
2021/12/19 06:31:46;;;;;;;7.13;1.00;;;;;;;5.08;59.12;102989.19;4953629;28;20030;-73
2021/12/19 06:34:12;;;;;;;10.07;1.63;;;;;;;5.06;59.69;102985.69;4954026;28;20659;-73
2021/12/19 06:36:37;;;;;;;16.05;2.10;;;;;;;5.16;59.15;102987.59;4942838;28;20031;-73
2021/12/19 06:39:04;;;;;;;11.23;0.65;;;;;;;5.21;59.10;102980.78;4943883;28;20043;-72
2021/12/19 06:41:29;;;;;;;14.77;1.63;;;;;;;4.99;59.26;102984.72;4930749;28;20070;-72
2021/12/19 06:43:55;;;;;;;12.20;0.90;;;;;;;4.78;60.25;102980.00;4937474;28;20089;-73
2021/12/19 06:46:20;;;;;;;14.93;1.13;;;;;;;5.02;59.40;102974.41;4957529;28;20054;-74
2021/12/19 06:48:46;;;;;;;11.73;1.00;;;;;;;4.94;60.07;102969.94;4947917;28;20035;-74
2021/12/19 06:51:11;;;;;;;8.63;1.20;;;;;;;5.29;58.84;102973.09;4945497;28;20081;-74
2021/12/19 06:53:37;;;;;;;5.68;0.70;;;;;;;5.40;57.96;102965.50;4955747;28;20039;-72
2021/12/19 06:56:03;;;;;;;6.00;0.80;;;;;;;5.30;58.63;102958.41;4954393;28;20058;-72
2021/12/19 06:58:28;;;;;;;8.23;0.90;;;;;;;5.38;58.20;102956.81;4954470;28;20050;-73
2021/12/19 07:00:54;;;;;;;13.85;1.67;;;;;;;5.48;57.50;102957.81;4938930;28;20043;-73
2021/12/19 07:03:23;;;;;;;10.73;1.45;;;;;;;5.58;57.00;102959.72;4938402;28;20035;-73
2021/12/19 07:05:51;;;;;;;15.50;1.17;;;;;;;5.34;57.92;102965.41;4953325;28;20121;-73
2021/12/19 07:08:17;;;;;;;12.60;1.63;;;;;;;5.63;57.40;102952.84;4953236;28;20113;-71
2021/12/19 07:10:43;;;;;;;19.02;1.83;;;;;;;5.18;58.89;102953.91;4951141;28;20145;-72
2021/12/19 07:13:08;;;;;;;7.10;1.67;;;;;;;5.53;57.45;102951.00;4937907;28;20142;-72
2021/12/19 07:15:37;;;;;;;21.60;1.63;;;;;;;5.51;57.61;102943.19;4954817;28;20045;-71
2021/12/19 07:18:04;;;;;;;13.30;1.27;;;;;;;5.59;57.70;102954.56;4943313;28;20374;-71
2021/12/19 07:20:30;;;;;;;11.63;2.22;;;;;;;5.60;57.36;102952.81;4954620;28;20109;-70
2021/12/19 07:22:57;;;;;;;11.20;1.40;;;;;;;5.39;58.10;102938.69;4939455;28;20473;-71
2021/12/19 07:25:25;;;;;;;15.52;1.38;;;;;;;5.32;57.94;102947.22;4936010;28;20509;-72
2021/12/19 07:27:53;;;;;;;15.48;1.42;;;;;;;5.63;56.96;102945.94;4955679;28;20035;-71
2021/12/19 07:30:18;;;;;;;10.75;0.90;;;;;;;5.39;56.98;102945.59;4951684;28;20918;-72
2021/12/19 07:32:44;;;;;;;9.60;1.10;;;;;;;5.03;57.51;102949.34;4954486;28;20168;-72
2021/12/19 07:35:11;;;;;;;15.57;1.92;;;;;;;5.38;56.41;102946.44;4952147;28;20615;-72
2021/12/19 07:37:37;;;;;;;10.43;0.65;;;;;;;5.34;56.25;102944.66;4972486;28;20031;-72
2021/12/19 07:40:16;;;;;;;12.57;1.10;;;;;;;5.43;55.98;102944.78;4972777;28;20492;-72
2021/12/19 07:42:42;;;;;;;18.55;2.17;;;;;;;5.23;56.56;102929.81;4974065;28;20042;-73
2021/12/19 07:45:10;;;;;;;9.85;2.15;;;;;;;5.33;56.50;102940.34;4971241;28;20043;-72
2021/12/19 07:47:39;;;;;;;12.85;1.42;;;;;;;5.21;56.62;102934.09;4958044;28;20030;-72
2021/12/19 07:50:07;;;;;;;10.63;2.42;;;;;;;5.42;56.19;102930.09;4957325;28;20105;-72
2021/12/19 07:52:33;;;;;;;10.73;1.23;;;;;;;5.39;56.37;102930.91;4973661;28;20360;-72
2021/12/19 07:54:59;;;;;;;8.90;0.85;;;;;;;5.46;56.67;102931.88;4960340;28;20058;-72
2021/12/19 07:57:24;;;;;;;14.40;1.95;;;;;;;5.32;56.75;102933.38;4958461;28;20034;-73
2021/12/19 07:59:50;;;;;;;10.95;1.58;;;;;;;5.22;56.89;102930.66;4953329;28;20058;-72
2021/12/19 08:02:16;;;;;;;4.05;0.65;;;;;;;5.46;56.26;102926.69;4964252;28;20052;-72
2021/12/19 08:04:41;;;;;;;10.75;2.25;;;;;;;5.14;56.60;102928.78;4970455;28;20057;-72
2021/12/19 08:07:08;;;;;;;11.10;2.25;;;;;;;5.30;56.18;102924.69;4975462;28;20035;-74
2021/12/19 08:09:40;;;;;;;12.15;1.15;;;;;;;5.45;55.93;102927.53;4972958;28;20105;-72
2021/12/19 08:12:07;;;;;;;3.95;0.73;;;;;;;5.24;56.25;102934.16;4975289;28;20069;-72
2021/12/19 08:14:33;;;;;;;7.18;1.25;;;;;;;5.43;56.13;102931.81;4971243;28;20071;-72
2021/12/19 08:16:59;;;;;;;6.82;0.85;;;;;;;5.21;56.69;102928.94;4976169;28;20038;-72
2021/12/19 08:19:25;;;;;;;14.43;0.98;;;;;;;5.29;56.60;102930.75;4956172;28;20049;-73
2021/12/19 08:21:53;;;;;;;12.60;1.20;;;;;;;5.45;55.88;102928.38;4971843;28;20111;-72
2021/12/19 08:24:19;;;;;;;22.20;1.35;;;;;;;5.31;56.25;102918.69;4973409;28;20516;-74
2021/12/19 08:26:45;;;;;;;11.43;1.00;;;;;;;5.38;55.51;102918.78;4963463;28;20094;-72
2021/12/19 08:29:14;;;;;;;6.18;0.82;;;;;;;5.70;54.57;102918.34;4957834;28;20034;-72
2021/12/19 08:31:40;;;;;;;7.43;0.95;;;;;;;5.60;54.55;102914.78;4974083;28;20033;-73
2021/12/19 08:34:11;;;;;;;4.80;0.55;;;;;;;5.78;53.89;102915.88;4960892;28;20019;-74
2021/12/19 08:36:37;;;;;;;9.52;0.60;;;;;;;5.91;53.68;102912.56;4954404;28;20037;-72
2021/12/19 08:39:06;;;;;;;13.27;1.33;;;;;;;5.53;54.12;102910.34;4944039;28;20436;-73
2021/12/19 08:41:32;;;;;;;10.10;1.00;;;;;;;5.29;54.21;102902.22;4953562;28;20027;-71
2021/12/19 08:43:57;;;;;;;8.23;1.92;;;;;;;5.35;54.37;102903.19;4970984;28;20069;-72
2021/12/19 08:46:23;;;;;;;9.75;1.63;;;;;;;5.49;54.01;102899.91;4955478;28;20053;-72
2021/12/19 08:48:51;;;;;;;13.23;0.85;;;;;;;5.33;54.50;102907.47;4965683;28;20460;-73
2021/12/19 08:51:17;;;;;;;14.48;2.30;;;;;;;5.60;53.98;102909.59;4963774;28;20493;-72
2021/12/19 08:53:43;;;;;;;11.63;1.38;;;;;;;5.87;53.36;102900.41;4973792;28;20030;-73
2021/12/19 08:56:08;;;;;;;5.13;0.88;;;;;;;5.99;52.87;102904.88;4957102;28;20134;-73
2021/12/19 08:58:34;;;;;;;11.82;1.75;;;;;;;5.91;53.09;102904.78;4965327;28;20034;-72
2021/12/19 09:01:01;;;;;;;11.88;1.23;;;;;;;5.83;53.17;102909.00;4971409;28;20035;-72
2021/12/19 09:03:32;;;;;;;6.18;0.82;;;;;;;5.91;52.92;102906.53;4955762;28;20034;-72
2021/12/19 09:06:01;;;;;;;15.20;1.50;;;;;;;5.61;53.66;102908.75;4937082;28;20806;-73
2021/12/19 09:08:27;;;;;;;16.50;0.93;;;;;;;5.94;53.26;102906.53;4954067;28;20034;-73
2021/12/19 09:10:57;;;;;;;7.40;1.55;;;;;;;5.85;53.29;102912.50;4973730;28;20061;-73
2021/12/19 09:13:23;;;;;;;28.50;2.08;;;;;;;5.83;53.65;102911.59;4973104;28;20030;-72
2021/12/19 09:15:50;;;;;;;9.73;0.82;;;;;;;5.68;54.42;102904.47;4945809;28;20109;-73
2021/12/19 09:18:18;;;;;;;7.15;1.05;;;;;;;5.85;53.61;102902.97;4939724;28;20057;-72
2021/12/19 09:20:44;;;;;;;7.43;1.70;;;;;;;5.81;53.97;102902.91;4956589;28;20050;-72
2021/12/19 09:23:11;;;;;;;12.02;2.13;;;;;;;5.84;54.03;102905.56;4959461;28;20039;-72
2021/12/19 09:25:37;;;;;;;15.95;1.60;;;;;;;5.88;54.06;102902.13;4971937;28;20053;-71
2021/12/19 09:28:04;;;;;;;5.50;0.88;;;;;;;5.89;53.97;102903.91;4970746;28;20042;-73
2021/12/19 09:30:29;;;;;;;10.02;2.53;;;;;;;6.07;53.30;102904.09;4970315;28;20564;-72
2021/12/19 09:32:55;;;;;;;7.78;2.08;;;;;;;5.40;54.15;102885.09;4956475;28;20342;-72
2021/12/19 09:35:21;;;;;;;9.32;0.98;;;;;;;5.38;53.81;102881.63;4951964;28;20050;-72
2021/12/19 09:37:46;;;;;;;8.63;1.17;;;;;;;5.64;52.97;102888.03;4971190;28;20034;-72
2021/12/19 09:40:18;;;;;;;13.38;1.02;;;;;;;5.90;52.50;102879.66;4969529;28;20042;-72
2021/12/19 09:42:49;;;;;;;11.18;0.63;;;;;;;5.89;52.23;102877.94;4960642;28;20038;-72
2021/12/19 09:45:17;;;;;;;12.83;1.17;;;;;;;5.73;52.44;102876.03;4959045;28;20051;-72
2021/12/19 09:47:43;;;;;;;25.55;2.88;;;;;;;5.54;53.10;102880.97;4960896;28;20291;-72
2021/12/19 09:50:10;;;;;;;14.15;1.30;;;;;;;5.73;52.53;102883.81;4951769;28;20061;-72
2021/12/19 09:52:37;;;;;;;14.85;1.90;;;;;;;5.82;52.53;102882.19;4969265;28;20042;-72
2021/12/19 09:55:04;;;;;;;10.23;0.70;;;;;;;5.63;53.52;102875.88;4951255;28;20129;-71
2021/12/19 09:57:30;;;;;;;14.82;1.50;;;;;;;5.56;53.71;102884.44;4959520;28;20432;-72
2021/12/19 09:59:56;;;;;;;12.40;1.58;;;;;;;6.15;52.15;102879.94;4968404;28;20054;-72
2021/12/19 10:02:22;;;;;;;16.52;1.27;;;;;;;6.08;52.32;102879.91;4944539;28;20525;-73
2021/12/19 10:04:48;;;;;;;15.68;2.45;;;;;;;6.11;52.45;102880.78;4969021;28;20050;-72
2021/12/19 10:07:18;;;;;;;8.35;2.15;;;;;;;6.30;51.93;102880.13;4956094;28;20045;-72
2021/12/19 10:10:04;;;;;;;19.85;1.38;;;;;;;5.82;53.00;102878.72;4948908;28;20670;-72
2021/12/19 10:15:18;;;;;;;10.15;1.00;;;;;;;6.03;52.50;102871.16;4967446;28;20484;-72
2021/12/19 10:17:45;;;;;;;11.07;1.45;;;;;;;5.67;53.27;102867.28;4967281;28;20086;-72
2021/12/19 10:20:16;;;;;;;13.77;1.45;;;;;;;5.88;52.92;102869.28;4969863;28;20050;-72
2021/12/19 10:22:48;;;;;;;8.13;1.97;;;;;;;5.83;52.89;102863.16;4969837;28;20085;-72
2021/12/19 10:25:30;;;;;;;15.20;1.88;;;;;;;5.87;52.91;102864.94;4950113;28;20085;-72
2021/12/19 10:28:05;;;;;;;7.72;1.23;;;;;;;6.01;52.92;102852.09;4967899;28;20038;-71
2021/12/19 10:30:43;;;;;;;14.50;2.00;;;;;;;6.22;51.94;102845.44;4969647;28;20054;-74
2021/12/19 10:33:21;;;;;;;18.75;1.73;;;;;;;5.90;53.25;102843.34;4956842;28;20552;-74
2021/12/19 10:35:54;;;;;;;10.45;1.13;;;;;;;6.05;52.65;102840.03;4951138;28;20085;-73
2021/12/19 10:38:25;;;;;;;15.93;1.23;;;;;;;5.95;53.44;102833.91;4959273;28;20033;-74
2021/12/19 10:40:58;;;;;;;13.75;1.25;;;;;;;6.27;52.32;102833.34;4950541;28;20119;-74
2021/12/19 10:43:28;;;;;;;15.13;1.45;;;;;;;6.15;52.80;102825.41;4949320;28;20127;-73
2021/12/19 10:46:00;;;;;;;10.50;0.68;;;;;;;5.67;54.24;102825.78;4966313;28;20075;-74
2021/12/19 10:48:32;;;;;;;10.55;1.27;;;;;;;6.15;53.10;102818.53;4983102;28;20070;-73
2021/12/19 10:51:00;;;;;;;12.00;0.93;;;;;;;6.06;53.91;102815.81;4975996;28;20363;-74
2021/12/19 10:53:31;;;;;;;8.73;1.15;;;;;;;5.88;54.56;102813.91;4961268;28;20038;-74
2021/12/19 10:55:58;;;;;;;7.13;0.80;;;;;;;5.87;54.83;102817.38;4947544;28;20043;-74
2021/12/19 10:58:26;;;;;;;10.38;1.00;;;;;;;5.65;55.54;102808.47;4943574;28;20937;-73
2021/12/19 11:01:17;;;;;;;2.55;0.40;;;;;;;5.67;55.18;102801.56;4941658;28;20069;-73
2021/12/19 11:03:45;;;;;;;;;;;;;;;5.85;54.95;102803.50;4959782;28;20034;-73
2021/12/19 11:06:17;;;;;;;9.45;0.60;;;;;;;5.89;54.62;102797.50;4957928;28;19914;-73
2021/12/19 11:08:44;;;;;;;5.80;0.43;;;;;;;5.96;54.83;102793.22;4945895;28;20496;-73
2021/12/19 11:11:12;;;;;;;9.77;0.50;;;;;;;6.12;54.90;102783.88;4963080;28;20046;-74
2021/12/19 11:13:38;;;;;;;7.25;0.75;;;;;;;5.66;56.25;102786.88;4959837;28;20096;-75
2021/12/19 11:16:05;;;;;;;5.35;0.68;;;;;;;5.94;55.57;102775.03;4947531;28;20191;-74
2021/12/19 11:18:30;;;;;;;10.02;1.05;;;;;;;6.09;55.51;102767.41;4959783;28;20163;-74
2021/12/19 11:20:57;;;;;;;7.32;0.52;;;;;;;5.68;56.55;102756.59;4928853;28;20038;-73
2021/12/19 11:23:23;;;;;;;11.68;1.00;;;;;;;5.73;56.23;102759.28;4956853;28;20053;-73
2021/12/19 11:25:49;;;;;;;4.38;0.40;;;;;;;5.81;55.97;102760.19;4971694;28;20479;-73
2021/12/19 11:28:15;;;;;;;7.90;0.57;;;;;;;5.77;56.42;102748.94;4969033;28;20058;-73
2021/12/19 11:30:41;;;;;;;5.85;1.55;;;;;;;6.06;55.79;102748.31;4954194;28;20043;-74
2021/12/19 11:33:33;;;;;;;14.73;2.55;;;;;;;5.61;56.97;102744.41;4972405;28;20514;-74
2021/12/19 11:36:01;;;;;;;13.15;0.82;;;;;;;6.17;55.61;102741.53;4971168;28;20086;-74
2021/12/19 11:38:27;;;;;;;15.80;0.82;;;;;;;6.16;55.63;102741.50;4969260;28;20188;-74
2021/12/19 11:40:53;;;;;;;4.70;1.05;;;;;;;6.32;55.28;102748.56;4969607;28;20045;-73
2021/12/19 11:43:19;;;;;;;11.93;1.48;;;;;;;6.32;54.90;102743.38;4975875;28;20034;-74
2021/12/19 11:45:57;;;;;;;11.55;1.85;;;;;;;5.95;55.73;102748.25;4968229;28;20053;-76
2021/12/19 11:48:29;;;;;;;7.47;0.80;;;;;;;5.85;56.08;102746.41;4973547;28;20034;-75
2021/12/19 11:51:18;;;;;;;9.48;1.13;;;;;;;5.73;56.44;102734.19;4972322;28;20042;-72
2021/12/19 11:53:44;;;;;;;5.03;0.70;;;;;;;6.02;56.13;102731.88;4955228;28;20034;-73
2021/12/19 11:56:16;;;;;;;18.25;1.30;;;;;;;5.53;57.64;102733.97;4955981;28;20107;-74
2021/12/19 11:58:49;;;;;;;5.70;0.98;;;;;;;5.77;57.02;102723.00;4974149;28;20641;-74
2021/12/19 12:01:24;;;;;;;7.88;1.45;;;;;;;6.10;56.14;102716.34;4973660;28;20187;-73
2021/12/19 12:03:54;;;;;;;15.68;1.30;;;;;;;6.17;55.55;102706.88;4955981;28;20117;-74
2021/12/19 12:06:24;;;;;;;7.15;0.65;;;;;;;5.99;55.41;102707.59;4945295;28;20133;-75
2021/12/19 12:09:22;;;;;;;4.75;0.75;;;;;;;6.14;54.98;102706.84;4961818;28;20070;-73
2021/12/19 12:12:01;;;;;;;8.77;0.60;;;;;;;6.19;54.56;102703.44;4950470;28;20436;-72
2021/12/19 12:14:30;;;;;;;8.57;0.82;;;;;;;6.28;53.74;102702.66;4959534;28;20050;-75
2021/12/19 12:17:01;;;;;;;8.40;0.90;;;;;;;6.33;54.09;102705.28;4969945;28;20072;-72
2021/12/19 12:19:51;;;;;;;14.10;1.15;;;;;;;5.76;55.06;102710.00;4953646;28;20523;-72
2021/12/19 12:22:37;;;;;;;5.47;1.05;;;;;;;6.14;53.60;102706.84;4957896;28;20480;-72
2021/12/19 12:25:03;;;;;;;9.23;2.38;;;;;;;6.57;52.92;102689.00;4940289;28;20061;-71
2021/12/19 12:27:37;;;;;;;11.50;1.77;;;;;;;5.94;54.10;102684.19;4973180;28;20096;-74
2021/12/19 12:30:09;;;;;;;15.32;1.83;;;;;;;6.19;53.30;102674.00;4971698;28;20051;-75
2021/12/19 12:32:35;;;;;;;9.68;1.05;;;;;;;6.04;53.88;102679.97;4972582;28;20046;-74